Aérodrome :
LOGIN :

S'inscrire | Disclaimer

   EN    FR    IT 

 










Légende :    VFR   VFR Marginal   IFR   IFR Intensif   IFR Très Intensif
Visi : 
Plafond : 
>= 8 km
>= 3000ft
5 à 8 km
1000 à 3000 ft
1500m à 5 km
500 à 1000 ft
800 à 1500m
200 à 500 ft
< 800m
< 200 ft
Symboles :   Orages  Brouillard  Fortes neiges  Fortes précipitations  Vent > 20 kt
SIGMETs :   Divers  Orages  Givrage  Turbulence  Onde Orograph.  Cendres Volcan.






- Altitude de l'aérodrome : 408 ft
- Code IATA : SOB


LHSM - Sarmellek Balaton

DERNIER METAR :
  • 281515Z AUTO 33002KT 9999 OVC024 05/04 Q0994

METARs EXPIRÉS :
  • 281445Z AUTO 33002KT 9999 OVC025 05/05 Q0994 TEMPO BKN016
  • 281415Z AUTO 36004KT 9999 BKN026 BKN060 05/04 Q0993 TEMPO BKN016
  • 281345Z AUTO 36004KT 9999 -DZ BKN013 06/05 Q0993 TEMPO BKN016
  • 281315Z AUTO 01003KT 320V080 9999 -RA BKN006 OVC043 06/06 Q0993 TEMPO BKN012
  • 281245Z AUTO VRB01KT 9999 -RA BKN007 06/06 Q0993 TEMPO 4500 RA BKN012 OVC020
  • 281215Z AUTO VRB02KT 9999 -RA BKN007 OVC030 06/06 Q0992 TEMPO 4500 RA BKN006 OVC020
  • 281145Z AUTO 00000KT 7000 -RA FEW006 BKN031 06/06 Q0992 TEMPO 4500 RA BKN006 OVC020
  • 281115Z AUTO VRB02KT 6000 -RA FEW002 SCT005 BKN034 05/05 Q0992 TEMPO 4500 RA BKN006 OVC020
  • 281045Z AUTO VRB02KT 7000 -RA OVC002 05/05 Q0992 TEMPO 4500 RA BKN012 OVC020

TAF TAF LHSM
Valide du 28 à 12h jusqu'au 28 à 21h UTC


281115Z 2812/2821 VRB02KT 8000 -RA SCT008 OVC020
PROB40 2812/2816 3500 RADZ BR OVC002
PROB30 2815/2819 2000 BR BKN002 BKN030 OVC060
BECMG 2819/2821 34010KT SCT025 BKN080



MET'MAP, la Météo Aéronautique d'un coup d'oeil ! - Copyright ORBIFLY Décembre 2007 - Disclaimer

ORBIFLY MET'MAP TEAM :

Programmation & Développement : Alexandra Zaïnal
Sur une idée originale de : Baudouin d'Aumeries
Soutien technique & logistique : Manuel Goepfert
Assistance : Marc-Olivier Méhu




SOURCES & CREDITS :

   NOAA